Terminal Aerodrome Forecast
Issued by NWS North Platte, NE

Home | Current Version | Previous Version | Text Only | Print | Product List | Glossary On
Versions: 1 2 3 4 5 6 7 8 9 10 11 12 13 14 15 16 17 18 19 20 21 22 23 24 25 26 27 28 29 30 31 32 33 34 35 36 37 38 39 40 41 42 43 44 45 46 47 48 49 50
000
FTUS43 KLBF 172139 CCC
TAFLBF
TAF COR
KLBF 172139Z 1722/1818 11007KT P6SM -RA SCT018 OVC025
     FM180000 10011KT P6SM OVC025
     FM180900 11007KT P6SM -RA OVC005
     FM181200 12007KT 2SM -RA BR OVC004
     FM181700 14011KT P6SM BKN012 BKN028=

USA.gov is the U.S. government's official web portal to all federal, state and local government web resources and services.